createdAt,value
2023-08-30T00:01:54.184Z,0.50
2023-08-30T00:04:22.403Z,0.50
2023-08-30T00:06:49.554Z,0.50
2023-08-30T00:09:17.239Z,0.50
2023-08-30T00:11:44.164Z,0.43
2023-08-30T00:14:11.808Z,0.50
2023-08-30T00:16:39.693Z,0.90
2023-08-30T00:19:07.238Z,0.60
2023-08-30T00:21:34.474Z,0.60
2023-08-30T00:24:01.768Z,0.60
2023-08-30T00:26:28.732Z,0.40
2023-08-30T00:28:56.361Z,0.50
2023-08-30T00:31:23.414Z,0.70
2023-08-30T00:33:50.706Z,0.60
2023-08-30T00:36:19.522Z,0.70
2023-08-30T00:38:46.621Z,0.60
2023-08-30T00:41:13.690Z,0.50
2023-08-30T00:43:41.533Z,0.30
2023-08-30T00:46:08.782Z,0.40
2023-08-30T00:48:35.828Z,0.40
2023-08-30T00:51:03.438Z,0.60
2023-08-30T00:53:30.537Z,0.40
2023-08-30T00:55:57.856Z,1.17
2023-08-30T00:58:27.686Z,0.50
2023-08-30T01:00:54.768Z,0.50
2023-08-30T01:03:22.896Z,0.43
2023-08-30T01:05:50.038Z,0.40
2023-08-30T01:08:17.200Z,0.40
2023-08-30T01:11:08.533Z,0.40
2023-08-30T01:13:43.275Z,0.50
2023-08-30T01:16:10.399Z,0.60
2023-08-30T01:18:39.450Z,0.60
2023-08-30T01:21:13.082Z,0.60
2023-08-30T01:24:01.462Z,0.30
2023-08-30T01:27:07.513Z,0.60
2023-08-30T01:29:36.081Z,0.50
2023-08-30T01:32:07.016Z,0.60
2023-08-30T01:34:35.691Z,0.40
2023-08-30T01:37:04.679Z,0.50
2023-08-30T01:39:32.713Z,0.80
2023-08-30T01:42:01.779Z,0.50
2023-08-30T01:44:32.740Z,0.53
2023-08-30T01:47:00.231Z,0.40
2023-08-30T01:49:32.950Z,0.50
2023-08-30T01:52:00.364Z,0.53
2023-08-30T01:54:29.131Z,0.60
2023-08-30T01:56:56.240Z,0.50
2023-08-30T01:59:23.232Z,0.70
2023-08-30T02:01:52.738Z,0.50
2023-08-30T02:04:19.754Z,0.43
2023-08-30T02:07:01.772Z,0.60
2023-08-30T02:09:36.866Z,0.37
2023-08-30T02:12:08.136Z,0.53
2023-08-30T02:14:36.454Z,0.60
2023-08-30T02:17:04.200Z,0.40
2023-08-30T02:19:31.504Z,0.50
2023-08-30T02:21:58.424Z,0.60
2023-08-30T02:24:25.596Z,0.50
2023-08-30T02:26:52.744Z,0.70
2023-08-30T02:29:19.810Z,0.50
2023-08-30T02:31:46.881Z,0.30
2023-08-30T02:34:13.912Z,0.50
2023-08-30T02:36:40.862Z,0.60
2023-08-30T02:39:08.412Z,0.30
2023-08-30T02:41:35.626Z,0.50
2023-08-30T02:44:03.143Z,0.30
2023-08-30T02:46:30.103Z,0.40
2023-08-30T02:48:57.158Z,0.60
2023-08-30T02:51:24.275Z,0.50
2023-08-30T02:53:51.198Z,0.50
2023-08-30T02:56:18.342Z,0.70
2023-08-30T02:58:45.524Z,0.40
2023-08-30T03:01:12.780Z,0.50
2023-08-30T03:03:39.677Z,0.40
2023-08-30T03:06:07.559Z,0.40
2023-08-30T03:08:34.509Z,0.60
2023-08-30T03:11:12.423Z,0.70
2023-08-30T03:13:44.656Z,1.13
2023-08-30T03:16:13.160Z,0.40
2023-08-30T03:18:41.252Z,0.70
2023-08-30T03:21:09.334Z,0.63
2023-08-30T03:23:36.830Z,0.50
2023-08-30T03:26:10.790Z,0.50
2023-08-30T03:28:38.748Z,0.40
2023-08-30T03:31:20.846Z,0.50
2023-08-30T03:33:49.699Z,0.50
2023-08-30T03:36:18.143Z,0.40
2023-08-30T03:38:46.318Z,0.50
2023-08-30T03:41:13.891Z,0.60
2023-08-30T03:43:41.096Z,0.40
2023-08-30T03:46:10.799Z,0.40
2023-08-30T03:48:38.007Z,0.50
2023-08-30T03:51:05.040Z,0.60
2023-08-30T03:53:33.707Z,0.60
2023-08-30T03:56:00.774Z,0.60
2023-08-30T03:58:27.776Z,0.60
2023-08-30T04:00:54.806Z,0.50
2023-08-30T04:03:21.889Z,0.40
2023-08-30T04:05:49.157Z,0.60
2023-08-30T04:08:16.065Z,0.63
2023-08-30T04:10:43.627Z,0.60
2023-08-30T04:13:11.296Z,1.00
2023-08-30T04:15:40.228Z,0.50
2023-08-30T04:18:09.175Z,0.57
2023-08-30T04:20:36.783Z,1.27
2023-08-30T04:23:04.112Z,0.67
2023-08-30T04:25:32.274Z,0.70
2023-08-30T04:27:59.488Z,0.63
2023-08-30T04:30:27.192Z,0.60
2023-08-30T04:32:54.365Z,0.43
2023-08-30T04:35:21.800Z,0.70
2023-08-30T04:37:49.433Z,0.80
2023-08-30T04:40:16.482Z,0.67
2023-08-30T04:42:44.529Z,0.70
2023-08-30T04:45:12.152Z,0.60
2023-08-30T04:47:39.328Z,0.60
2023-08-30T04:50:07.180Z,0.70
2023-08-30T04:52:34.533Z,1.00
2023-08-30T04:55:01.662Z,0.70
2023-08-30T04:57:31.098Z,0.70
2023-08-30T04:59:58.274Z,0.67
2023-08-30T05:02:25.348Z,0.70
2023-08-30T05:04:59.568Z,0.50
2023-08-30T05:07:26.728Z,0.70
2023-08-30T05:09:53.749Z,0.70
2023-08-30T05:12:20.907Z,0.73
2023-08-30T05:14:47.953Z,0.93
2023-08-30T05:17:14.848Z,0.80
2023-08-30T05:19:41.751Z,0.77
2023-08-30T05:22:08.731Z,0.70
2023-08-30T05:24:36.598Z,0.60
2023-08-30T05:27:03.810Z,0.70
2023-08-30T05:29:38.618Z,0.80
2023-08-30T05:32:06.121Z,0.67
2023-08-30T05:34:46.059Z,0.63
2023-08-30T05:37:21.880Z,0.87
2023-08-30T05:40:04.643Z,0.70
2023-08-30T05:42:31.744Z,0.80
2023-08-30T05:44:58.794Z,0.70
2023-08-30T05:47:25.892Z,1.23
2023-08-30T05:49:53.122Z,0.70
2023-08-30T05:52:20.670Z,0.70
2023-08-30T05:54:48.181Z,0.80
2023-08-30T05:57:15.282Z,1.13
2023-08-30T05:59:42.310Z,1.10
2023-08-30T06:02:09.305Z,0.73
2023-08-30T06:04:36.418Z,0.80
2023-08-30T06:07:04.670Z,0.70
2023-08-30T06:09:31.748Z,0.70
2023-08-30T06:11:58.634Z,0.63
2023-08-30T06:14:25.575Z,0.60
2023-08-30T06:16:52.632Z,0.73
2023-08-30T06:19:19.540Z,0.60
2023-08-30T06:21:46.552Z,0.70
2023-08-30T06:24:13.762Z,0.73
2023-08-30T06:26:40.706Z,0.80
2023-08-30T06:29:07.605Z,0.80
2023-08-30T06:31:34.733Z,0.90
2023-08-30T06:34:01.716Z,1.07
2023-08-30T06:36:28.741Z,0.97
2023-08-30T06:38:56.094Z,0.90
2023-08-30T06:41:23.084Z,0.70
2023-08-30T06:43:50.129Z,0.70
2023-08-30T06:46:17.650Z,0.93
2023-08-30T06:48:45.765Z,0.97
2023-08-30T06:51:12.775Z,1.40
2023-08-30T06:53:39.829Z,1.00
2023-08-30T06:56:06.755Z,1.00
2023-08-30T06:58:33.702Z,0.93
2023-08-30T07:01:01.533Z,0.70
2023-08-30T07:03:28.487Z,0.70
2023-08-30T07:05:55.583Z,0.90
2023-08-30T07:08:22.774Z,0.73
2023-08-30T07:10:50.417Z,0.60
2023-08-30T07:13:17.413Z,1.17
2023-08-30T07:15:44.448Z,0.70
2023-08-30T07:18:11.824Z,0.70
2023-08-30T07:20:40.314Z,0.70
2023-08-30T07:23:09.969Z,0.93
2023-08-30T07:25:38.944Z,1.03
2023-08-30T07:28:07.109Z,1.00
2023-08-30T07:30:36.293Z,0.77
2023-08-30T07:33:05.568Z,1.03
2023-08-30T07:35:34.069Z,0.90
2023-08-30T07:38:01.416Z,0.73
2023-08-30T07:40:30.096Z,0.80
2023-08-30T07:43:04.786Z,0.80
2023-08-30T07:45:31.914Z,0.80
2023-08-30T07:47:58.939Z,0.80
2023-08-30T07:50:26.060Z,0.77
2023-08-30T07:52:53.127Z,0.83
2023-08-30T07:55:20.025Z,0.60
2023-08-30T07:57:47.290Z,0.90
2023-08-30T08:00:14.660Z,0.70
2023-08-30T08:02:45.566Z,0.80
2023-08-30T08:05:12.678Z,0.70
2023-08-30T08:07:41.595Z,0.70
2023-08-30T08:10:08.943Z,0.70
2023-08-30T08:12:37.047Z,0.63
2023-08-30T08:15:04.500Z,0.70
2023-08-30T08:17:31.379Z,0.97
2023-08-30T08:19:58.595Z,0.60
2023-08-30T08:22:25.631Z,0.50
2023-08-30T08:24:54.872Z,0.43
2023-08-30T08:27:21.802Z,0.70
2023-08-30T08:29:48.839Z,1.00
2023-08-30T08:32:16.050Z,1.30
2023-08-30T08:34:43.243Z,0.93
2023-08-30T08:37:10.411Z,0.73
2023-08-30T08:39:37.482Z,1.00
2023-08-30T08:42:05.158Z,0.83
2023-08-30T08:44:33.526Z,0.83
2023-08-30T08:47:02.118Z,0.83
2023-08-30T08:49:30.600Z,0.90
2023-08-30T08:51:58.468Z,0.70
2023-08-30T08:54:27.026Z,0.90
2023-08-30T08:56:54.601Z,0.90
2023-08-30T08:59:22.807Z,0.70
2023-08-30T09:01:49.909Z,0.70
2023-08-30T09:04:16.999Z,0.80
2023-08-30T09:06:46.836Z,0.90
2023-08-30T09:09:14.586Z,0.63
2023-08-30T09:14:11.453Z,0.60
2023-08-30T09:16:38.537Z,0.57
2023-08-30T09:21:36.103Z,0.60
2023-08-30T09:24:07.708Z,0.50
2023-08-30T09:26:38.682Z,0.73
2023-08-30T09:29:09.822Z,0.60
2023-08-30T09:31:38.796Z,0.53
2023-08-30T09:34:06.421Z,0.70
2023-08-30T09:36:43.182Z,0.40
2023-08-30T09:39:12.038Z,0.53
2023-08-30T09:41:43.519Z,0.43
2023-08-30T09:44:14.501Z,0.50
2023-08-30T09:46:55.566Z,0.40
2023-08-30T09:49:24.607Z,0.50
2023-08-30T09:52:45.716Z,0.50
2023-08-30T09:54:45.004Z,0.50
2023-08-30T09:57:12.109Z,0.60
2023-08-30T09:59:40.649Z,0.60
2023-08-30T10:02:09.605Z,0.40
2023-08-30T10:04:41.538Z,0.50
2023-08-30T10:07:10.233Z,0.50
2023-08-30T10:09:55.243Z,0.57
2023-08-30T10:12:30.396Z,0.67
2023-08-30T10:14:58.204Z,0.80
2023-08-30T10:17:33.337Z,0.77
2023-08-30T10:20:04.991Z,0.80
2023-08-30T10:22:33.580Z,0.70
2023-08-30T10:25:18.124Z,0.80
2023-08-30T10:27:48.308Z,0.80
2023-08-30T10:30:17.975Z,0.60
2023-08-30T10:32:46.744Z,0.73
2023-08-30T10:35:19.196Z,0.70
2023-08-30T10:38:00.910Z,0.87
2023-08-30T10:40:28.039Z,0.80
2023-08-30T10:43:05.111Z,0.80
2023-08-30T10:45:32.392Z,0.90
2023-08-30T10:48:00.801Z,0.70
2023-08-30T10:50:33.264Z,0.70
2023-08-30T10:53:00.840Z,0.97
2023-08-30T10:55:28.289Z,0.97
2023-08-30T10:58:08.163Z,1.00
2023-08-30T11:00:37.049Z,1.03
2023-08-30T11:03:04.785Z,0.80
2023-08-30T11:05:32.051Z,1.10
2023-08-30T11:07:58.969Z,1.40
2023-08-30T11:10:26.835Z,0.90
2023-08-30T11:12:53.916Z,1.37
2023-08-30T11:15:22.018Z,1.23
2023-08-30T11:17:49.321Z,1.30
2023-08-30T11:20:21.924Z,1.30
2023-08-30T11:22:50.635Z,1.50
2023-08-30T11:25:18.303Z,0.93
2023-08-30T11:27:47.244Z,1.10
2023-08-30T11:30:14.369Z,1.10
2023-08-30T11:32:44.659Z,1.20
2023-08-30T11:35:12.442Z,1.20
2023-08-30T11:37:41.513Z,1.13
2023-08-30T11:40:09.037Z,1.17
2023-08-30T11:42:36.164Z,2.00
2023-08-30T11:45:05.394Z,1.30
2023-08-30T11:47:32.449Z,1.43
2023-08-30T11:50:00.656Z,1.20
2023-08-30T11:52:28.816Z,1.10
2023-08-30T11:54:56.330Z,1.07
2023-08-30T11:57:23.801Z,1.53
2023-08-30T11:59:52.003Z,1.30
2023-08-30T12:02:19.785Z,1.10
2023-08-30T12:04:48.931Z,1.23
2023-08-30T12:07:26.539Z,1.20
2023-08-30T12:09:54.574Z,0.90
2023-08-30T12:12:24.729Z,1.50
2023-08-30T12:14:58.182Z,1.30
2023-08-30T12:17:25.465Z,1.40
2023-08-30T12:19:59.243Z,1.37
2023-08-30T12:22:40.375Z,1.40
2023-08-30T12:25:28.413Z,1.60
2023-08-30T12:27:55.438Z,1.63
2023-08-30T12:30:22.479Z,1.53
2023-08-30T12:32:50.022Z,1.40
2023-08-30T12:35:17.214Z,1.30
2023-08-30T12:37:44.493Z,1.43
2023-08-30T12:40:12.176Z,1.37
2023-08-30T12:42:39.237Z,1.33
2023-08-30T12:45:06.868Z,1.20
2023-08-30T12:47:34.228Z,1.20
2023-08-30T12:50:01.187Z,1.10
2023-08-30T12:52:28.475Z,1.37
2023-08-30T12:54:55.655Z,1.20
2023-08-30T12:57:22.549Z,1.40
2023-08-30T12:59:53.570Z,1.50
2023-08-30T13:02:20.881Z,1.37
2023-08-30T13:04:47.819Z,1.40
2023-08-30T13:07:14.791Z,1.50
2023-08-30T13:09:41.902Z,1.50
2023-08-30T13:12:09.227Z,1.37
2023-08-30T13:14:36.208Z,1.10
2023-08-30T13:17:03.977Z,1.10
2023-08-30T13:19:30.918Z,1.20
2023-08-30T13:21:58.706Z,1.50
2023-08-30T13:24:25.823Z,1.40
2023-08-30T13:26:52.729Z,1.37
2023-08-30T13:29:19.695Z,1.43
2023-08-30T13:31:46.758Z,1.43
2023-08-30T13:34:13.745Z,1.23
2023-08-30T13:36:41.095Z,1.50
2023-08-30T13:39:08.112Z,1.73
2023-08-30T13:41:36.937Z,1.17
2023-08-30T13:44:07.294Z,1.50
2023-08-30T13:46:34.976Z,1.30
2023-08-30T13:49:02.054Z,1.40
2023-08-30T13:51:29.077Z,1.40
2023-08-30T13:53:56.098Z,1.63
2023-08-30T13:56:23.872Z,1.37
2023-08-30T13:58:51.132Z,1.40
2023-08-30T14:01:18.423Z,1.30
2023-08-30T14:03:45.438Z,1.30
2023-08-30T14:06:12.800Z,1.60
2023-08-30T14:08:40.070Z,1.57
2023-08-30T14:11:07.261Z,1.30
2023-08-30T14:13:34.293Z,1.50
2023-08-30T14:16:03.946Z,1.60
2023-08-30T14:18:31.695Z,1.50
2023-08-30T14:21:02.705Z,1.50
2023-08-30T14:23:34.335Z,1.73
2023-08-30T14:26:12.793Z,1.70
2023-08-30T14:28:41.313Z,1.63
2023-08-30T14:31:11.983Z,1.67
2023-08-30T14:33:41.215Z,1.67
2023-08-30T14:36:12.085Z,1.60
2023-08-30T14:38:39.864Z,1.50
2023-08-30T14:41:07.209Z,1.50
2023-08-30T14:43:34.724Z,1.27
2023-08-30T14:46:12.459Z,1.60
2023-08-30T14:48:41.783Z,1.30
2023-08-30T14:51:09.626Z,1.50
2023-08-30T14:53:37.083Z,1.20
2023-08-30T14:56:08.117Z,1.60
2023-08-30T14:58:38.257Z,1.50
2023-08-30T15:01:06.041Z,1.50
2023-08-30T15:03:33.428Z,1.20
2023-08-30T15:06:00.429Z,1.90
2023-08-30T15:08:27.467Z,1.63
2023-08-30T15:10:54.617Z,1.50
2023-08-30T15:13:22.170Z,1.40
2023-08-30T15:15:49.476Z,1.63
2023-08-30T15:18:17.037Z,1.90
2023-08-30T15:20:44.509Z,1.67
2023-08-30T15:23:18.268Z,1.50
2023-08-30T15:25:47.695Z,1.60
2023-08-30T15:28:15.627Z,1.60
2023-08-30T15:30:43.969Z,1.80
2023-08-30T15:33:11.717Z,1.63
2023-08-30T15:35:40.505Z,1.93
2023-08-30T15:38:08.643Z,2.43
2023-08-30T15:40:36.340Z,1.80
2023-08-30T15:43:03.925Z,1.80
2023-08-30T15:45:31.332Z,1.60
2023-08-30T15:47:58.284Z,1.50
2023-08-30T15:50:25.414Z,1.70
2023-08-30T15:52:52.714Z,1.70
2023-08-30T15:55:20.860Z,1.40
2023-08-30T15:57:47.853Z,1.70
2023-08-30T16:00:15.907Z,1.60
2023-08-30T16:02:42.986Z,1.40
2023-08-30T16:05:10.092Z,1.50
2023-08-30T16:07:37.034Z,1.53
2023-08-30T16:10:05.176Z,1.73
2023-08-30T16:12:32.393Z,1.70
2023-08-30T16:14:59.487Z,1.70
2023-08-30T16:17:26.610Z,1.60
2023-08-30T16:19:53.874Z,1.50
2023-08-30T16:22:21.405Z,1.70
2023-08-30T16:24:48.365Z,1.77
2023-08-30T16:27:15.277Z,1.67
2023-08-30T16:29:42.336Z,1.60
2023-08-30T16:32:09.279Z,2.00
2023-08-30T16:34:37.843Z,2.07
2023-08-30T16:37:05.038Z,1.70
2023-08-30T16:39:32.050Z,1.70
2023-08-30T16:41:59.197Z,1.80
2023-08-30T16:44:26.399Z,1.97
2023-08-30T16:46:53.387Z,1.90
2023-08-30T16:49:20.427Z,1.73
2023-08-30T16:51:47.553Z,1.73
2023-08-30T16:54:14.689Z,2.00
2023-08-30T16:56:41.612Z,2.27
2023-08-30T16:59:08.678Z,1.80
2023-08-30T17:01:35.617Z,2.00
2023-08-30T17:04:02.599Z,1.73
2023-08-30T17:06:29.698Z,1.73
2023-08-30T17:08:56.842Z,2.10
2023-08-30T17:11:23.870Z,2.20
2023-08-30T17:13:50.966Z,2.10
2023-08-30T17:16:17.941Z,1.87
2023-08-30T17:18:44.920Z,2.03
2023-08-30T17:21:13.851Z,1.83
2023-08-30T17:23:41.311Z,1.73
2023-08-30T17:26:08.539Z,2.00
2023-08-30T17:28:37.026Z,2.20
2023-08-30T17:31:07.059Z,1.83
2023-08-30T17:33:34.783Z,2.10
2023-08-30T17:36:05.143Z,2.17
2023-08-30T17:38:32.807Z,2.30
2023-08-30T17:40:59.899Z,2.13
2023-08-30T17:43:27.176Z,2.40
2023-08-30T17:45:54.495Z,2.10
2023-08-30T17:48:21.623Z,2.60
2023-08-30T17:50:48.594Z,2.37
2023-08-30T17:53:17.040Z,2.30
2023-08-30T17:55:44.121Z,2.33
2023-08-30T17:58:11.338Z,2.40
2023-08-30T18:00:38.221Z,2.00
2023-08-30T18:03:05.356Z,2.40
2023-08-30T18:05:32.513Z,2.30
2023-08-30T18:07:59.473Z,2.10
2023-08-30T18:10:26.555Z,2.40
2023-08-30T18:13:13.852Z,2.40
2023-08-30T18:16:01.167Z,2.40
2023-08-30T18:18:48.236Z,2.50
2023-08-30T18:21:35.125Z,2.30
2023-08-30T18:24:34.077Z,2.13
2023-08-30T18:27:20.898Z,2.37
2023-08-30T18:30:08.027Z,2.20
2023-08-30T18:32:55.720Z,2.30
2023-08-30T18:35:42.728Z,2.33
2023-08-30T18:38:29.884Z,2.67
2023-08-30T18:41:17.091Z,3.37
2023-08-30T18:44:04.719Z,2.03
2023-08-30T18:46:51.898Z,2.43
2023-08-30T18:49:39.841Z,2.80
2023-08-30T18:52:27.062Z,2.63
2023-08-30T18:55:14.049Z,2.67
2023-08-30T18:58:01.317Z,2.60
2023-08-30T19:00:52.073Z,2.77
2023-08-30T19:03:39.479Z,2.77
2023-08-30T19:06:26.615Z,2.70
2023-08-30T19:09:14.550Z,2.53
2023-08-30T19:12:01.456Z,2.40
2023-08-30T19:14:48.582Z,2.70
2023-08-30T19:17:35.626Z,2.80
2023-08-30T19:20:22.789Z,2.60
2023-08-30T19:23:10.197Z,2.57
2023-08-30T19:25:57.636Z,2.77
2023-08-30T19:28:45.212Z,2.60
2023-08-30T19:31:32.259Z,2.40
2023-08-30T19:34:19.250Z,2.83
2023-08-30T19:37:06.297Z,2.57
2023-08-30T19:39:53.357Z,2.33
2023-08-30T19:42:40.441Z,3.37
2023-08-30T19:45:28.672Z,2.87
2023-08-30T19:48:15.750Z,2.33
2023-08-30T19:51:12.080Z,2.70
2023-08-30T19:53:59.120Z,2.67
2023-08-30T19:56:46.152Z,2.53
2023-08-30T19:59:33.041Z,2.60
2023-08-30T20:02:20.094Z,2.77
2023-08-30T20:05:07.022Z,2.57
2023-08-30T20:07:54.359Z,3.20
2023-08-30T20:10:41.549Z,2.60
2023-08-30T20:13:28.458Z,2.40
2023-08-30T20:16:23.274Z,2.63
2023-08-30T20:19:10.216Z,2.50
2023-08-30T20:21:57.286Z,2.67
2023-08-30T20:24:44.743Z,2.97
2023-08-30T20:27:31.934Z,2.80
2023-08-30T20:30:18.847Z,2.57
2023-08-30T20:33:06.389Z,2.67
2023-08-30T20:35:56.822Z,2.67
2023-08-30T20:38:43.828Z,2.37
2023-08-30T20:41:30.782Z,2.63
2023-08-30T20:44:17.828Z,2.63
2023-08-30T20:47:04.749Z,2.83
2023-08-30T20:49:51.836Z,2.80
2023-08-30T20:52:38.851Z,3.40
2023-08-30T20:55:39.321Z,3.13
2023-08-30T20:58:28.037Z,3.20
2023-08-30T21:01:17.148Z,2.77
2023-08-30T21:04:04.426Z,3.20
2023-08-30T21:06:51.467Z,3.00
2023-08-30T21:09:38.441Z,3.43
2023-08-30T21:12:25.807Z,2.50
2023-08-30T21:15:12.795Z,2.70
2023-08-30T21:18:00.297Z,3.00
2023-08-30T21:20:47.527Z,2.73
2023-08-30T21:24:24.393Z,2.60
2023-08-30T21:27:11.444Z,2.60
2023-08-30T21:30:01.535Z,2.53
2023-08-30T21:32:48.567Z,2.87
2023-08-30T21:35:35.714Z,2.80
2023-08-30T21:38:22.686Z,2.70
2023-08-30T21:41:09.629Z,2.63
2023-08-30T21:43:56.637Z,2.50
2023-08-30T21:46:43.851Z,2.40
2023-08-30T21:49:30.896Z,2.23
2023-08-30T21:52:17.814Z,2.10
2023-08-30T21:55:04.929Z,2.40
2023-08-30T21:57:51.940Z,2.33
2023-08-30T22:00:38.951Z,2.27
2023-08-30T22:03:26.609Z,2.43
2023-08-30T22:06:20.120Z,2.73
2023-08-30T22:09:07.393Z,2.40
2023-08-30T22:11:55.436Z,2.20
2023-08-30T22:14:49.416Z,2.77
2023-08-30T22:17:37.451Z,2.60
2023-08-30T22:20:24.891Z,2.40
2023-08-30T22:23:12.068Z,2.37
2023-08-30T22:25:59.360Z,2.47
2023-08-30T22:28:46.326Z,2.63
2023-08-30T22:31:33.299Z,2.60
2023-08-30T22:34:20.259Z,2.60
2023-08-30T22:37:07.326Z,2.50
2023-08-30T22:39:54.419Z,2.67
2023-08-30T22:42:41.528Z,2.67
2023-08-30T22:45:29.536Z,2.60
2023-08-30T22:48:16.873Z,2.47
2023-08-30T22:51:03.767Z,2.70
2023-08-30T22:53:53.786Z,2.60
2023-08-30T22:56:41.902Z,2.87
2023-08-30T22:59:29.627Z,2.73
2023-08-30T23:01:56.737Z,2.57
2023-08-30T23:04:23.780Z,2.60
2023-08-30T23:06:52.019Z,2.50
2023-08-30T23:09:22.088Z,2.53
2023-08-30T23:11:49.702Z,2.70
2023-08-30T23:14:16.970Z,2.60
2023-08-30T23:16:44.519Z,2.80
2023-08-30T23:19:11.530Z,2.80
2023-08-30T23:21:38.879Z,2.60
2023-08-30T23:24:06.325Z,2.60
2023-08-30T23:26:33.386Z,2.90
2023-08-30T23:29:00.540Z,2.37
2023-08-30T23:31:27.617Z,2.33
2023-08-30T23:33:54.577Z,2.60
2023-08-30T23:36:24.356Z,2.90
2023-08-30T23:38:52.375Z,2.80
2023-08-30T23:41:20.919Z,2.37
2023-08-30T23:43:47.993Z,2.57
2023-08-30T23:46:15.155Z,2.17
2023-08-30T23:48:42.150Z,2.40
2023-08-30T23:51:09.532Z,2.60
2023-08-30T23:53:37.044Z,2.60
2023-08-30T23:56:04.340Z,2.73
2023-08-30T23:58:31.373Z,2.53
